sensor_id;sensor_type;location;lat;lon;timestamp;P1;durP1;ratioP1;P2;durP2;ratioP2
61962;SDS011;47927;42.646;23.096;2022-09-09T00:04:28;13.98;;;7.55;;
61962;SDS011;47927;42.646;23.096;2022-09-09T00:07:06;11.95;;;8.32;;
61962;SDS011;47927;42.646;23.096;2022-09-09T00:12:12;14.30;;;8.38;;
61962;SDS011;47927;42.646;23.096;2022-09-09T00:28:28;11.82;;;7.35;;
61962;SDS011;47927;42.646;23.096;2022-09-09T00:31:13;13.07;;;8.05;;
61962;SDS011;47927;42.646;23.096;2022-09-09T00:33:44;13.65;;;8.45;;
61962;SDS011;47927;42.646;23.096;2022-09-09T00:36:14;13.88;;;8.10;;
61962;SDS011;47927;42.646;23.096;2022-09-09T00:38:47;10.25;;;7.80;;
61962;SDS011;47927;42.646;23.096;2022-09-09T00:46:56;13.52;;;8.20;;
61962;SDS011;47927;42.646;23.096;2022-09-09T00:52:21;10.32;;;7.13;;
61962;SDS011;47927;42.646;23.096;2022-09-09T00:57:30;15.52;;;7.90;;
61962;SDS011;47927;42.646;23.096;2022-09-09T01:05:20;10.18;;;7.60;;
61962;SDS011;47927;42.646;23.096;2022-09-09T01:07:52;10.65;;;7.88;;
61962;SDS011;47927;42.646;23.096;2022-09-09T01:13:04;13.60;;;9.02;;
61962;SDS011;47927;42.646;23.096;2022-09-09T01:15:40;14.48;;;8.65;;
61962;SDS011;47927;42.646;23.096;2022-09-09T01:18:10;17.73;;;8.05;;
61962;SDS011;47927;42.646;23.096;2022-09-09T01:26:23;10.10;;;8.18;;
61962;SDS011;47927;42.646;23.096;2022-09-09T01:29:02;10.10;;;7.60;;
61962;SDS011;47927;42.646;23.096;2022-09-09T01:31:41;14.80;;;8.45;;
61962;SDS011;47927;42.646;23.096;2022-09-09T01:34:16;12.00;;;8.02;;
61962;SDS011;47927;42.646;23.096;2022-09-09T01:39:23;12.00;;;7.78;;
61962;SDS011;47927;42.646;23.096;2022-09-09T01:41:57;12.73;;;7.78;;
61962;SDS011;47927;42.646;23.096;2022-09-09T01:44:23;16.30;;;9.07;;
61962;SDS011;47927;42.646;23.096;2022-09-09T01:46:50;14.02;;;8.00;;
61962;SDS011;47927;42.646;23.096;2022-09-09T01:49:18;15.77;;;8.32;;
61962;SDS011;47927;42.646;23.096;2022-09-09T01:51:45;14.45;;;8.40;;
61962;SDS011;47927;42.646;23.096;2022-09-09T01:54:14;12.80;;;8.80;;
61962;SDS011;47927;42.646;23.096;2022-09-09T01:59:34;13.85;;;8.48;;
61962;SDS011;47927;42.646;23.096;2022-09-09T02:02:30;13.45;;;8.35;;
61962;SDS011;47927;42.646;23.096;2022-09-09T02:08:07;10.75;;;7.40;;
61962;SDS011;47927;42.646;23.096;2022-09-09T02:11:05;12.77;;;8.35;;
61962;SDS011;47927;42.646;23.096;2022-09-09T02:13:40;14.40;;;8.82;;
61962;SDS011;47927;42.646;23.096;2022-09-09T02:16:12;12.93;;;8.77;;
61962;SDS011;47927;42.646;23.096;2022-09-09T02:21:32;18.58;;;8.20;;
61962;SDS011;47927;42.646;23.096;2022-09-09T02:24:02;16.27;;;9.23;;
61962;SDS011;47927;42.646;23.096;2022-09-09T02:26:38;13.30;;;9.30;;
61962;SDS011;47927;42.646;23.096;2022-09-09T02:29:26;13.35;;;9.05;;
61962;SDS011;47927;42.646;23.096;2022-09-09T02:31:57;16.65;;;8.50;;
61962;SDS011;47927;42.646;23.096;2022-09-09T02:34:31;16.27;;;8.73;;
61962;SDS011;47927;42.646;23.096;2022-09-09T02:39:28;12.32;;;8.93;;
61962;SDS011;47927;42.646;23.096;2022-09-09T02:41:54;11.55;;;8.45;;
61962;SDS011;47927;42.646;23.096;2022-09-09T02:44:28;13.25;;;8.48;;
61962;SDS011;47927;42.646;23.096;2022-09-09T02:47:05;14.20;;;8.13;;
61962;SDS011;47927;42.646;23.096;2022-09-09T02:55:13;13.55;;;8.80;;
61962;SDS011;47927;42.646;23.096;2022-09-09T02:57:45;11.02;;;8.50;;
61962;SDS011;47927;42.646;23.096;2022-09-09T03:00:14;11.57;;;7.30;;
61962;SDS011;47927;42.646;23.096;2022-09-09T03:02:41;12.93;;;7.55;;
61962;SDS011;47927;42.646;23.096;2022-09-09T03:05:07;14.25;;;8.15;;
61962;SDS011;47927;42.646;23.096;2022-09-09T03:07:33;10.48;;;7.78;;
61962;SDS011;47927;42.646;23.096;2022-09-09T03:09:59;10.90;;;7.57;;
61962;SDS011;47927;42.646;23.096;2022-09-09T03:12:26;12.48;;;9.40;;
61962;SDS011;47927;42.646;23.096;2022-09-09T03:14:52;15.40;;;8.80;;
61962;SDS011;47927;42.646;23.096;2022-09-09T03:17:17;15.05;;;8.38;;
61962;SDS011;47927;42.646;23.096;2022-09-09T03:19:49;12.48;;;8.52;;
61962;SDS011;47927;42.646;23.096;2022-09-09T03:22:17;11.85;;;8.65;;
61962;SDS011;47927;42.646;23.096;2022-09-09T03:24:44;10.50;;;7.57;;
61962;SDS011;47927;42.646;23.096;2022-09-09T03:27:12;14.32;;;8.65;;
61962;SDS011;47927;42.646;23.096;2022-09-09T03:29:39;14.73;;;9.52;;
61962;SDS011;47927;42.646;23.096;2022-09-09T03:32:08;15.45;;;9.15;;
61962;SDS011;47927;42.646;23.096;2022-09-09T03:34:36;13.25;;;9.07;;
61962;SDS011;47927;42.646;23.096;2022-09-09T03:37:04;11.73;;;9.35;;
61962;SDS011;47927;42.646;23.096;2022-09-09T03:39:31;13.50;;;9.23;;
61962;SDS011;47927;42.646;23.096;2022-09-09T03:41:58;12.07;;;8.02;;
61962;SDS011;47927;42.646;23.096;2022-09-09T03:44:23;12.65;;;9.18;;
61962;SDS011;47927;42.646;23.096;2022-09-09T03:46:49;12.40;;;8.23;;
61962;SDS011;47927;42.646;23.096;2022-09-09T03:49:14;13.57;;;8.85;;
61962;SDS011;47927;42.646;23.096;2022-09-09T03:51:40;15.18;;;9.05;;
61962;SDS011;47927;42.646;23.096;2022-09-09T03:54:09;12.40;;;8.43;;
61962;SDS011;47927;42.646;23.096;2022-09-09T03:56:36;18.55;;;9.75;;
61962;SDS011;47927;42.646;23.096;2022-09-09T03:59:02;14.38;;;9.13;;
61962;SDS011;47927;42.646;23.096;2022-09-09T04:01:29;14.60;;;9.18;;
61962;SDS011;47927;42.646;23.096;2022-09-09T04:03:54;13.77;;;8.98;;
61962;SDS011;47927;42.646;23.096;2022-09-09T04:06:23;16.63;;;9.50;;
61962;SDS011;47927;42.646;23.096;2022-09-09T04:08:49;11.73;;;8.18;;
61962;SDS011;47927;42.646;23.096;2022-09-09T04:11:16;16.38;;;8.93;;
61962;SDS011;47927;42.646;23.096;2022-09-09T04:13:43;16.38;;;9.60;;
61962;SDS011;47927;42.646;23.096;2022-09-09T04:16:11;13.82;;;9.57;;
61962;SDS011;47927;42.646;23.096;2022-09-09T04:18:41;14.15;;;8.75;;
61962;SDS011;47927;42.646;23.096;2022-09-09T04:21:08;14.32;;;9.40;;
61962;SDS011;47927;42.646;23.096;2022-09-09T04:23:35;11.75;;;8.13;;
61962;SDS011;47927;42.646;23.096;2022-09-09T04:26:01;14.10;;;9.88;;
61962;SDS011;47927;42.646;23.096;2022-09-09T04:28:29;14.57;;;8.75;;
61962;SDS011;47927;42.646;23.096;2022-09-09T04:30:57;11.75;;;8.65;;
61962;SDS011;47927;42.646;23.096;2022-09-09T04:33:28;18.42;;;8.35;;
61962;SDS011;47927;42.646;23.096;2022-09-09T04:35:56;12.27;;;7.68;;
61962;SDS011;47927;42.646;23.096;2022-09-09T04:38:24;12.10;;;7.32;;
61962;SDS011;47927;42.646;23.096;2022-09-09T04:40:51;10.43;;;7.35;;
61962;SDS011;47927;42.646;23.096;2022-09-09T04:43:20;12.15;;;7.03;;
61962;SDS011;47927;42.646;23.096;2022-09-09T04:45:48;11.65;;;6.82;;
61962;SDS011;47927;42.646;23.096;2022-09-09T04:48:14;9.43;;;6.53;;
61962;SDS011;47927;42.646;23.096;2022-09-09T04:50:40;9.57;;;6.93;;
61962;SDS011;47927;42.646;23.096;2022-09-09T04:53:08;9.65;;;5.80;;
61962;SDS011;47927;42.646;23.096;2022-09-09T04:55:36;10.80;;;6.15;;
61962;SDS011;47927;42.646;23.096;2022-09-09T04:58:06;8.52;;;5.20;;
61962;SDS011;47927;42.646;23.096;2022-09-09T05:00:34;8.13;;;4.88;;
61962;SDS011;47927;42.646;23.096;2022-09-09T05:03:06;12.00;;;5.35;;
61962;SDS011;47927;42.646;23.096;2022-09-09T05:05:33;10.10;;;5.13;;
61962;SDS011;47927;42.646;23.096;2022-09-09T05:08:03;11.43;;;5.35;;
61962;SDS011;47927;42.646;23.096;2022-09-09T05:10:30;9.52;;;5.15;;
61962;SDS011;47927;42.646;23.096;2022-09-09T05:12:57;8.52;;;5.47;;
61962;SDS011;47927;42.646;23.096;2022-09-09T05:15:25;13.75;;;5.47;;
61962;SDS011;47927;42.646;23.096;2022-09-09T05:17:51;15.73;;;5.57;;
61962;SDS011;47927;42.646;23.096;2022-09-09T05:20:19;11.93;;;5.63;;
61962;SDS011;47927;42.646;23.096;2022-09-09T05:22:45;11.57;;;5.22;;
61962;SDS011;47927;42.646;23.096;2022-09-09T05:25:10;11.23;;;5.00;;
61962;SDS011;47927;42.646;23.096;2022-09-09T05:27:36;13.52;;;5.70;;
61962;SDS011;47927;42.646;23.096;2022-09-09T05:30:03;8.65;;;5.00;;
61962;SDS011;47927;42.646;23.096;2022-09-09T05:32:30;9.75;;;5.93;;
61962;SDS011;47927;42.646;23.096;2022-09-09T05:37:24;9.73;;;5.82;;
61962;SDS011;47927;42.646;23.096;2022-09-09T05:39:49;8.45;;;4.93;;
61962;SDS011;47927;42.646;23.096;2022-09-09T05:42:16;7.63;;;4.63;;
61962;SDS011;47927;42.646;23.096;2022-09-09T05:44:43;7.78;;;4.53;;
61962;SDS011;47927;42.646;23.096;2022-09-09T05:47:10;9.40;;;4.80;;
61962;SDS011;47927;42.646;23.096;2022-09-09T05:49:36;6.60;;;4.10;;
61962;SDS011;47927;42.646;23.096;2022-09-09T05:52:02;6.00;;;3.72;;
61962;SDS011;47927;42.646;23.096;2022-09-09T05:54:29;12.93;;;4.30;;
61962;SDS011;47927;42.646;23.096;2022-09-09T05:56:55;5.40;;;4.00;;
61962;SDS011;47927;42.646;23.096;2022-09-09T05:59:21;6.53;;;3.88;;
61962;SDS011;47927;42.646;23.096;2022-09-09T06:04:30;6.05;;;4.78;;
61962;SDS011;47927;42.646;23.096;2022-09-09T06:06:58;7.05;;;3.78;;
61962;SDS011;47927;42.646;23.096;2022-09-09T06:09:24;7.53;;;3.55;;
61962;SDS011;47927;42.646;23.096;2022-09-09T06:11:49;7.25;;;3.92;;
61962;SDS011;47927;42.646;23.096;2022-09-09T06:14:15;6.28;;;4.38;;
61962;SDS011;47927;42.646;23.096;2022-09-09T06:16:45;7.78;;;3.70;;
61962;SDS011;47927;42.646;23.096;2022-09-09T06:19:16;7.05;;;3.75;;
61962;SDS011;47927;42.646;23.096;2022-09-09T06:21:42;7.38;;;3.80;;
61962;SDS011;47927;42.646;23.096;2022-09-09T06:24:10;5.22;;;3.70;;
61962;SDS011;47927;42.646;23.096;2022-09-09T06:26:38;7.88;;;4.05;;
61962;SDS011;47927;42.646;23.096;2022-09-09T06:29:10;8.73;;;3.92;;
61962;SDS011;47927;42.646;23.096;2022-09-09T06:31:36;9.07;;;4.20;;
61962;SDS011;47927;42.646;23.096;2022-09-09T06:34:08;11.23;;;4.10;;
61962;SDS011;47927;42.646;23.096;2022-09-09T06:36:38;8.93;;;4.38;;
61962;SDS011;47927;42.646;23.096;2022-09-09T06:39:04;10.32;;;4.35;;
61962;SDS011;47927;42.646;23.096;2022-09-09T06:43:59;9.63;;;4.60;;
61962;SDS011;47927;42.646;23.096;2022-09-09T06:46:40;10.05;;;4.80;;
61962;SDS011;47927;42.646;23.096;2022-09-09T06:49:07;7.55;;;4.78;;
61962;SDS011;47927;42.646;23.096;2022-09-09T06:51:35;11.55;;;5.00;;
61962;SDS011;47927;42.646;23.096;2022-09-09T06:54:03;9.98;;;4.68;;
61962;SDS011;47927;42.646;23.096;2022-09-09T06:56:39;8.85;;;4.78;;
61962;SDS011;47927;42.646;23.096;2022-09-09T06:59:11;9.85;;;4.25;;
61962;SDS011;47927;42.646;23.096;2022-09-09T07:01:38;15.02;;;4.95;;
61962;SDS011;47927;42.646;23.096;2022-09-09T07:04:09;9.40;;;4.80;;
61962;SDS011;47927;42.646;23.096;2022-09-09T07:06:41;12.02;;;4.78;;
61962;SDS011;47927;42.646;23.096;2022-09-09T07:09:14;9.82;;;4.68;;
61962;SDS011;47927;42.646;23.096;2022-09-09T07:11:44;13.13;;;5.68;;
61962;SDS011;47927;42.646;23.096;2022-09-09T07:14:13;11.50;;;4.55;;
61962;SDS011;47927;42.646;23.096;2022-09-09T07:16:41;8.18;;;4.50;;
61962;SDS011;47927;42.646;23.096;2022-09-09T07:19:08;9.35;;;5.30;;
61962;SDS011;47927;42.646;23.096;2022-09-09T07:21:34;8.27;;;4.35;;
61962;SDS011;47927;42.646;23.096;2022-09-09T07:24:00;14.10;;;5.05;;
61962;SDS011;47927;42.646;23.096;2022-09-09T07:26:28;9.02;;;4.18;;
61962;SDS011;47927;42.646;23.096;2022-09-09T07:28:57;9.30;;;4.57;;
61962;SDS011;47927;42.646;23.096;2022-09-09T07:31:30;18.10;;;4.80;;
61962;SDS011;47927;42.646;23.096;2022-09-09T07:33:58;9.88;;;4.65;;
61962;SDS011;47927;42.646;23.096;2022-09-09T07:36:29;9.68;;;4.28;;
61962;SDS011;47927;42.646;23.096;2022-09-09T07:41:27;14.10;;;4.55;;
61962;SDS011;47927;42.646;23.096;2022-09-09T07:44:10;12.00;;;5.00;;
61962;SDS011;47927;42.646;23.096;2022-09-09T07:46:39;18.77;;;4.78;;
61962;SDS011;47927;42.646;23.096;2022-09-09T07:49:07;10.60;;;5.53;;
61962;SDS011;47927;42.646;23.096;2022-09-09T07:51:35;12.35;;;5.18;;
61962;SDS011;47927;42.646;23.096;2022-09-09T07:54:04;10.13;;;4.15;;
61962;SDS011;47927;42.646;23.096;2022-09-09T07:56:33;13.55;;;4.68;;
61962;SDS011;47927;42.646;23.096;2022-09-09T07:58:59;12.73;;;4.95;;
61962;SDS011;47927;42.646;23.096;2022-09-09T08:01:29;12.38;;;4.70;;
61962;SDS011;47927;42.646;23.096;2022-09-09T08:04:02;17.55;;;5.40;;
61962;SDS011;47927;42.646;23.096;2022-09-09T08:06:32;14.10;;;5.63;;
61962;SDS011;47927;42.646;23.096;2022-09-09T08:09:00;11.30;;;4.80;;
61962;SDS011;47927;42.646;23.096;2022-09-09T08:11:27;12.13;;;4.95;;
61962;SDS011;47927;42.646;23.096;2022-09-09T08:13:54;11.88;;;5.07;;
61962;SDS011;47927;42.646;23.096;2022-09-09T08:16:22;15.45;;;5.10;;
61962;SDS011;47927;42.646;23.096;2022-09-09T08:18:50;10.60;;;4.60;;
61962;SDS011;47927;42.646;23.096;2022-09-09T08:21:18;7.13;;;4.57;;
61962;SDS011;47927;42.646;23.096;2022-09-09T08:23:46;9.30;;;4.35;;
61962;SDS011;47927;42.646;23.096;2022-09-09T08:26:17;11.70;;;4.70;;
61962;SDS011;47927;42.646;23.096;2022-09-09T08:28:48;10.90;;;5.18;;
61962;SDS011;47927;42.646;23.096;2022-09-09T08:33:45;11.57;;;5.30;;
61962;SDS011;47927;42.646;23.096;2022-09-09T08:36:12;13.13;;;4.60;;
61962;SDS011;47927;42.646;23.096;2022-09-09T08:38:40;13.57;;;5.03;;
61962;SDS011;47927;42.646;23.096;2022-09-09T08:55:14;14.45;;;4.72;;
61962;SDS011;47927;42.646;23.096;2022-09-09T08:58:06;8.43;;;4.50;;
61962;SDS011;47927;42.646;23.096;2022-09-09T09:00:48;13.30;;;4.88;;
61962;SDS011;47927;42.646;23.096;2022-09-09T09:12:21;10.82;;;4.90;;
61962;SDS011;47927;42.646;23.096;2022-09-09T09:14:49;9.00;;;4.90;;
61962;SDS011;47927;42.646;23.096;2022-09-09T09:17:17;10.25;;;5.28;;
61962;SDS011;47927;42.646;23.096;2022-09-09T09:25:31;11.45;;;4.85;;
61962;SDS011;47927;42.646;23.096;2022-09-09T09:28:02;8.90;;;4.32;;
61962;SDS011;47927;42.646;23.096;2022-09-09T09:30:41;10.02;;;5.10;;
61962;SDS011;47927;42.646;23.096;2022-09-09T09:35:43;13.05;;;4.82;;
61962;SDS011;47927;42.646;23.096;2022-09-09T09:38:16;8.82;;;4.85;;
61962;SDS011;47927;42.646;23.096;2022-09-09T09:40:55;13.52;;;4.95;;
61962;SDS011;47927;42.646;23.096;2022-09-09T09:43:28;12.07;;;4.90;;
61962;SDS011;47927;42.646;23.096;2022-09-09T09:45:55;8.32;;;4.68;;
61962;SDS011;47927;42.646;23.096;2022-09-09T09:48:26;10.70;;;4.97;;
61962;SDS011;47927;42.646;23.096;2022-09-09T09:53:24;9.82;;;4.75;;
61962;SDS011;47927;42.646;23.096;2022-09-09T09:56:00;14.32;;;5.70;;
61962;SDS011;47927;42.646;23.096;2022-09-09T09:58:30;9.30;;;5.30;;
61962;SDS011;47927;42.646;23.096;2022-09-09T10:00:59;12.00;;;5.07;;
61962;SDS011;47927;42.646;23.096;2022-09-09T10:03:29;15.77;;;5.50;;
61962;SDS011;47927;42.646;23.096;2022-09-09T10:06:14;10.60;;;5.20;;
61962;SDS011;47927;42.646;23.096;2022-09-09T10:08:46;9.45;;;4.90;;
61962;SDS011;47927;42.646;23.096;2022-09-09T10:21:54;13.85;;;5.47;;
61962;SDS011;47927;42.646;23.096;2022-09-09T10:27:47;12.00;;;5.15;;
61962;SDS011;47927;42.646;23.096;2022-09-09T10:30:27;7.13;;;4.28;;
61962;SDS011;47927;42.646;23.096;2022-09-09T10:33:24;9.88;;;4.90;;
61962;SDS011;47927;42.646;23.096;2022-09-09T10:36:01;10.20;;;5.00;;
61962;SDS011;47927;42.646;23.096;2022-09-09T10:38:44;11.07;;;5.53;;
61962;SDS011;47927;42.646;23.096;2022-09-09T10:57:12;10.23;;;5.88;;
61962;SDS011;47927;42.646;23.096;2022-09-09T10:59:43;9.38;;;5.18;;
61962;SDS011;47927;42.646;23.096;2022-09-09T11:05:16;7.30;;;5.13;;
61962;SDS011;47927;42.646;23.096;2022-09-09T11:07:49;11.05;;;5.38;;
61962;SDS011;47927;42.646;23.096;2022-09-09T11:10:27;7.70;;;5.25;;
61962;SDS011;47927;42.646;23.096;2022-09-09T11:13:06;11.90;;;4.90;;
61962;SDS011;47927;42.646;23.096;2022-09-09T11:15:51;9.38;;;5.00;;
61962;SDS011;47927;42.646;23.096;2022-09-09T11:18:21;9.60;;;4.30;;
61962;SDS011;47927;42.646;23.096;2022-09-09T11:20:50;6.05;;;4.60;;
61962;SDS011;47927;42.646;23.096;2022-09-09T11:23:24;8.57;;;5.30;;
61962;SDS011;47927;42.646;23.096;2022-09-09T11:25:58;7.70;;;5.25;;
61962;SDS011;47927;42.646;23.096;2022-09-09T11:42:22;11.90;;;6.05;;
61962;SDS011;47927;42.646;23.096;2022-09-09T11:44:49;9.85;;;6.13;;
61962;SDS011;47927;42.646;23.096;2022-09-09T11:47:20;7.43;;;4.70;;
61962;SDS011;47927;42.646;23.096;2022-09-09T11:49:46;8.75;;;5.10;;
61962;SDS011;47927;42.646;23.096;2022-09-09T11:52:20;7.63;;;5.10;;
61962;SDS011;47927;42.646;23.096;2022-09-09T11:55:10;7.32;;;5.15;;
61962;SDS011;47927;42.646;23.096;2022-09-09T11:57:56;8.10;;;5.15;;
61962;SDS011;47927;42.646;23.096;2022-09-09T12:03:02;10.70;;;5.35;;
61962;SDS011;47927;42.646;23.096;2022-09-09T12:05:42;8.95;;;5.03;;
61962;SDS011;47927;42.646;23.096;2022-09-09T12:08:11;7.32;;;5.72;;
61962;SDS011;47927;42.646;23.096;2022-09-09T12:10:58;6.63;;;4.75;;
61962;SDS011;47927;42.646;23.096;2022-09-09T12:13:25;7.88;;;4.85;;
61962;SDS011;47927;42.646;23.096;2022-09-09T12:15:56;8.15;;;4.30;;
61962;SDS011;47927;42.646;23.096;2022-09-09T12:18:32;9.25;;;4.70;;
61962;SDS011;47927;42.646;23.096;2022-09-09T12:21:05;9.27;;;5.22;;
61962;SDS011;47927;42.646;23.096;2022-09-09T12:23:55;10.30;;;5.03;;
61962;SDS011;47927;42.646;23.096;2022-09-09T12:32:39;6.72;;;4.97;;
61962;SDS011;47927;42.646;23.096;2022-09-09T12:37:56;8.80;;;5.25;;
61962;SDS011;47927;42.646;23.096;2022-09-09T12:42:52;9.07;;;5.20;;
61962;SDS011;47927;42.646;23.096;2022-09-09T12:45:20;9.35;;;5.55;;
61962;SDS011;47927;42.646;23.096;2022-09-09T12:50:23;10.65;;;5.25;;
61962;SDS011;47927;42.646;23.096;2022-09-09T12:52:52;8.65;;;5.15;;
61962;SDS011;47927;42.646;23.096;2022-09-09T12:55:24;7.63;;;5.13;;
61962;SDS011;47927;42.646;23.096;2022-09-09T12:57:55;9.80;;;5.18;;
61962;SDS011;47927;42.646;23.096;2022-09-09T13:00:24;9.48;;;4.82;;
61962;SDS011;47927;42.646;23.096;2022-09-09T13:02:51;11.43;;;4.78;;
61962;SDS011;47927;42.646;23.096;2022-09-09T13:07:49;11.20;;;4.93;;
61962;SDS011;47927;42.646;23.096;2022-09-09T13:10:15;8.63;;;4.97;;
61962;SDS011;47927;42.646;23.096;2022-09-09T13:12:48;12.27;;;5.07;;
61962;SDS011;47927;42.646;23.096;2022-09-09T13:15:16;7.93;;;4.70;;
61962;SDS011;47927;42.646;23.096;2022-09-09T13:18:06;10.40;;;4.93;;
61962;SDS011;47927;42.646;23.096;2022-09-09T13:20:37;8.80;;;4.35;;
61962;SDS011;47927;42.646;23.096;2022-09-09T13:23:03;8.95;;;4.32;;
61962;SDS011;47927;42.646;23.096;2022-09-09T13:25:29;9.73;;;6.40;;
61962;SDS011;47927;42.646;23.096;2022-09-09T13:28:04;9.27;;;5.03;;
61962;SDS011;47927;42.646;23.096;2022-09-09T13:30:54;11.82;;;4.97;;
61962;SDS011;47927;42.646;23.096;2022-09-09T13:33:29;8.70;;;5.10;;
61962;SDS011;47927;42.646;23.096;2022-09-09T13:36:05;11.18;;;4.80;;
61962;SDS011;47927;42.646;23.096;2022-09-09T13:38:35;11.23;;;4.80;;
61962;SDS011;47927;42.646;23.096;2022-09-09T13:41:04;7.13;;;4.57;;
61962;SDS011;47927;42.646;23.096;2022-09-09T13:43:53;10.45;;;4.35;;
61962;SDS011;47927;42.646;23.096;2022-09-09T13:51:37;7.47;;;4.30;;
61962;SDS011;47927;42.646;23.096;2022-09-09T13:54:11;10.02;;;4.60;;
61962;SDS011;47927;42.646;23.096;2022-09-09T13:56:38;7.47;;;3.97;;
61962;SDS011;47927;42.646;23.096;2022-09-09T13:59:06;7.32;;;4.18;;
61962;SDS011;47927;42.646;23.096;2022-09-09T14:01:36;11.40;;;4.63;;
61962;SDS011;47927;42.646;23.096;2022-09-09T14:04:02;9.43;;;4.43;;
61962;SDS011;47927;42.646;23.096;2022-09-09T14:06:28;10.00;;;5.10;;
61962;SDS011;47927;42.646;23.096;2022-09-09T14:08:54;9.52;;;4.63;;
61962;SDS011;47927;42.646;23.096;2022-09-09T14:11:20;8.38;;;4.80;;
61962;SDS011;47927;42.646;23.096;2022-09-09T14:13:47;13.35;;;5.22;;
61962;SDS011;47927;42.646;23.096;2022-09-09T14:16:18;7.25;;;4.35;;
61962;SDS011;47927;42.646;23.096;2022-09-09T14:18:44;10.70;;;5.20;;
61962;SDS011;47927;42.646;23.096;2022-09-09T14:21:11;9.82;;;4.95;;
61962;SDS011;47927;42.646;23.096;2022-09-09T14:23:37;9.00;;;4.68;;
61962;SDS011;47927;42.646;23.096;2022-09-09T14:26:04;11.73;;;5.18;;
61962;SDS011;47927;42.646;23.096;2022-09-09T14:28:31;8.13;;;5.00;;
61962;SDS011;47927;42.646;23.096;2022-09-09T14:30:59;12.40;;;4.88;;
61962;SDS011;47927;42.646;23.096;2022-09-09T14:33:26;9.57;;;5.20;;
61962;SDS011;47927;42.646;23.096;2022-09-09T14:36:01;10.98;;;5.22;;
61962;SDS011;47927;42.646;23.096;2022-09-09T14:38:28;8.45;;;4.90;;
61962;SDS011;47927;42.646;23.096;2022-09-09T14:40:55;8.23;;;5.15;;
61962;SDS011;47927;42.646;23.096;2022-09-09T14:43:22;10.38;;;4.97;;
61962;SDS011;47927;42.646;23.096;2022-09-09T14:45:47;13.10;;;5.20;;
61962;SDS011;47927;42.646;23.096;2022-09-09T14:48:16;7.82;;;5.35;;
61962;SDS011;47927;42.646;23.096;2022-09-09T14:50:42;8.00;;;5.03;;
61962;SDS011;47927;42.646;23.096;2022-09-09T14:53:08;6.53;;;4.65;;
61962;SDS011;47927;42.646;23.096;2022-09-09T14:55:35;9.13;;;6.10;;
61962;SDS011;47927;42.646;23.096;2022-09-09T14:58:01;7.60;;;4.65;;
61962;SDS011;47927;42.646;23.096;2022-09-09T15:00:26;10.60;;;4.90;;
61962;SDS011;47927;42.646;23.096;2022-09-09T15:02:55;9.10;;;4.75;;
61962;SDS011;47927;42.646;23.096;2022-09-09T15:05:21;9.97;;;4.40;;
61962;SDS011;47927;42.646;23.096;2022-09-09T15:07:47;6.63;;;4.47;;
61962;SDS011;47927;42.646;23.096;2022-09-09T15:10:13;11.82;;;4.70;;
61962;SDS011;47927;42.646;23.096;2022-09-09T15:12:39;6.85;;;4.00;;
61962;SDS011;47927;42.646;23.096;2022-09-09T15:15:04;10.65;;;4.50;;
61962;SDS011;47927;42.646;23.096;2022-09-09T15:17:30;9.85;;;4.32;;
61962;SDS011;47927;42.646;23.096;2022-09-09T15:19:56;12.05;;;4.53;;
61962;SDS011;47927;42.646;23.096;2022-09-09T15:22:22;8.52;;;3.90;;
61962;SDS011;47927;42.646;23.096;2022-09-09T15:24:49;10.73;;;4.20;;
61962;SDS011;47927;42.646;23.096;2022-09-09T15:27:15;11.57;;;3.90;;
61962;SDS011;47927;42.646;23.096;2022-09-09T15:29:41;7.32;;;4.00;;
61962;SDS011;47927;42.646;23.096;2022-09-09T15:32:07;10.10;;;4.78;;
61962;SDS011;47927;42.646;23.096;2022-09-09T15:34:33;9.10;;;4.18;;
61962;SDS011;47927;42.646;23.096;2022-09-09T15:36:58;9.80;;;4.80;;
61962;SDS011;47927;42.646;23.096;2022-09-09T15:39:25;12.48;;;4.45;;
61962;SDS011;47927;42.646;23.096;2022-09-09T15:41:50;7.40;;;4.65;;
61962;SDS011;47927;42.646;23.096;2022-09-09T15:44:16;10.80;;;5.10;;
61962;SDS011;47927;42.646;23.096;2022-09-09T15:46:50;10.52;;;4.65;;
61962;SDS011;47927;42.646;23.096;2022-09-09T15:51:47;12.07;;;4.68;;
61962;SDS011;47927;42.646;23.096;2022-09-09T15:54:20;10.35;;;4.90;;
61962;SDS011;47927;42.646;23.096;2022-09-09T15:56:56;7.60;;;4.63;;
61962;SDS011;47927;42.646;23.096;2022-09-09T15:59:23;9.35;;;4.57;;
61962;SDS011;47927;42.646;23.096;2022-09-09T16:01:49;9.43;;;4.65;;
61962;SDS011;47927;42.646;23.096;2022-09-09T16:04:18;13.23;;;4.85;;
61962;SDS011;47927;42.646;23.096;2022-09-09T16:06:50;10.35;;;4.95;;
61962;SDS011;47927;42.646;23.096;2022-09-09T16:09:17;10.63;;;5.35;;
61962;SDS011;47927;42.646;23.096;2022-09-09T16:11:43;6.78;;;4.85;;
61962;SDS011;47927;42.646;23.096;2022-09-09T16:14:08;15.05;;;4.78;;
61962;SDS011;47927;42.646;23.096;2022-09-09T16:16:34;10.38;;;4.95;;
61962;SDS011;47927;42.646;23.096;2022-09-09T16:19:02;13.95;;;5.10;;
61962;SDS011;47927;42.646;23.096;2022-09-09T16:21:31;8.90;;;5.25;;
61962;SDS011;47927;42.646;23.096;2022-09-09T16:24:03;9.25;;;5.05;;
61962;SDS011;47927;42.646;23.096;2022-09-09T16:26:31;8.88;;;4.97;;
61962;SDS011;47927;42.646;23.096;2022-09-09T16:28:59;8.27;;;5.50;;
61962;SDS011;47927;42.646;23.096;2022-09-09T16:31:26;16.48;;;5.65;;
61962;SDS011;47927;42.646;23.096;2022-09-09T16:33:52;10.15;;;5.60;;
61962;SDS011;47927;42.646;23.096;2022-09-09T16:36:19;13.82;;;5.30;;
61962;SDS011;47927;42.646;23.096;2022-09-09T16:38:55;10.00;;;5.03;;
61962;SDS011;47927;42.646;23.096;2022-09-09T16:41:23;11.68;;;5.75;;
61962;SDS011;47927;42.646;23.096;2022-09-09T16:43:55;13.25;;;6.45;;
61962;SDS011;47927;42.646;23.096;2022-09-09T16:46:23;10.68;;;5.53;;
61962;SDS011;47927;42.646;23.096;2022-09-09T16:48:49;9.88;;;6.20;;
61962;SDS011;47927;42.646;23.096;2022-09-09T16:53:46;12.88;;;5.88;;
61962;SDS011;47927;42.646;23.096;2022-09-09T16:56:12;11.10;;;5.70;;
61962;SDS011;47927;42.646;23.096;2022-09-09T16:58:39;9.95;;;6.07;;
61962;SDS011;47927;42.646;23.096;2022-09-09T17:01:08;9.52;;;6.03;;
61962;SDS011;47927;42.646;23.096;2022-09-09T17:03:35;9.68;;;6.53;;
61962;SDS011;47927;42.646;23.096;2022-09-09T17:06:02;9.50;;;6.00;;
61962;SDS011;47927;42.646;23.096;2022-09-09T17:08:29;12.25;;;6.65;;
61962;SDS011;47927;42.646;23.096;2022-09-09T17:10:55;12.73;;;6.30;;
61962;SDS011;47927;42.646;23.096;2022-09-09T17:13:21;11.23;;;6.90;;
61962;SDS011;47927;42.646;23.096;2022-09-09T17:15:47;11.88;;;6.85;;
61962;SDS011;47927;42.646;23.096;2022-09-09T17:18:12;9.95;;;6.57;;
61962;SDS011;47927;42.646;23.096;2022-09-09T17:20:41;9.98;;;6.60;;
61962;SDS011;47927;42.646;23.096;2022-09-09T17:23:07;16.15;;;6.78;;
61962;SDS011;47927;42.646;23.096;2022-09-09T17:25:34;8.95;;;6.43;;
61962;SDS011;47927;42.646;23.096;2022-09-09T17:28:00;13.05;;;6.95;;
61962;SDS011;47927;42.646;23.096;2022-09-09T17:30:29;13.52;;;6.55;;
61962;SDS011;47927;42.646;23.096;2022-09-09T17:32:56;10.45;;;6.45;;
61962;SDS011;47927;42.646;23.096;2022-09-09T17:35:22;13.98;;;7.07;;
61962;SDS011;47927;42.646;23.096;2022-09-09T17:37:47;10.23;;;6.55;;
61962;SDS011;47927;42.646;23.096;2022-09-09T17:40:13;11.23;;;7.15;;
61962;SDS011;47927;42.646;23.096;2022-09-09T17:42:38;12.65;;;7.95;;
61962;SDS011;47927;42.646;23.096;2022-09-09T17:45:05;16.45;;;8.05;;
61962;SDS011;47927;42.646;23.096;2022-09-09T17:47:32;12.80;;;8.35;;